sensor_id;sensor_type;location;lat;lon;timestamp;pressure;altitude;pressure_sealevel;temperature;humidity
23059;BME280;30585;51.502;7.218;2024-01-15T00:02:14;99339.25;;;0.00;95.83
23059;BME280;30585;51.502;7.218;2024-01-15T00:04:42;99347.50;;;-0.06;95.30
23059;BME280;30585;51.502;7.218;2024-01-15T00:07:10;99333.31;;;-0.05;95.91
23059;BME280;30585;51.502;7.218;2024-01-15T00:09:39;99316.00;;;-0.12;95.87
23059;BME280;30585;51.502;7.218;2024-01-15T00:12:07;99324.94;;;0.03;95.69
23059;BME280;30585;51.502;7.218;2024-01-15T00:14:35;99319.56;;;0.04;95.47
23059;BME280;30585;51.502;7.218;2024-01-15T00:17:03;99308.44;;;-0.03;95.66
23059;BME280;30585;51.502;7.218;2024-01-15T00:19:32;99316.91;;;0.04;95.60
23059;BME280;30585;51.502;7.218;2024-01-15T00:22:00;99313.34;;;0.05;95.53
23059;BME280;30585;51.502;7.218;2024-01-15T00:24:27;99304.53;;;0.05;95.42
23059;BME280;30585;51.502;7.218;2024-01-15T00:26:55;99305.38;;;0.05;95.71
23059;BME280;30585;51.502;7.218;2024-01-15T00:29:23;99297.28;;;0.08;95.45
23059;BME280;30585;51.502;7.218;2024-01-15T00:31:50;99302.56;;;0.08;95.55
23059;BME280;30585;51.502;7.218;2024-01-15T00:34:18;99304.53;;;0.05;95.61
23059;BME280;30585;51.502;7.218;2024-01-15T00:36:47;99292.75;;;0.10;95.72
23059;BME280;30585;51.502;7.218;2024-01-15T00:39:15;99299.00;;;0.09;95.60
23059;BME280;30585;51.502;7.218;2024-01-15T00:41:44;99286.66;;;0.08;95.73
23059;BME280;30585;51.502;7.218;2024-01-15T00:44:11;99291.09;;;0.08;95.44
23059;BME280;30585;51.502;7.218;2024-01-15T00:46:43;99288.47;;;0.08;95.42
23059;BME280;30585;51.502;7.218;2024-01-15T00:49:12;99281.19;;;0.11;95.53
23059;BME280;30585;51.502;7.218;2024-01-15T00:51:40;99293.59;;;0.11;95.20
23059;BME280;30585;51.502;7.218;2024-01-15T00:54:10;99291.81;;;0.11;95.66
23059;BME280;30585;51.502;7.218;2024-01-15T00:56:38;99288.38;;;0.09;95.42
23059;BME280;30585;51.502;7.218;2024-01-15T00:59:05;99293.84;;;0.06;95.49
23059;BME280;30585;51.502;7.218;2024-01-15T01:01:34;99290.09;;;0.10;95.67
23059;BME280;30585;51.502;7.218;2024-01-15T01:04:02;99289.31;;;0.08;95.50
23059;BME280;30585;51.502;7.218;2024-01-15T01:06:29;99285.81;;;0.08;95.83
23059;BME280;30585;51.502;7.218;2024-01-15T01:08:59;99285.81;;;0.08;95.59
23059;BME280;30585;51.502;7.218;2024-01-15T01:11:29;99286.50;;;0.11;95.77
23059;BME280;30585;51.502;7.218;2024-01-15T01:13:57;99276.22;;;0.05;95.91
23059;BME280;30585;51.502;7.218;2024-01-15T01:16:24;99287.69;;;0.06;96.09
23059;BME280;30585;51.502;7.218;2024-01-15T01:18:52;99281.50;;;0.05;95.86
23059;BME280;30585;51.502;7.218;2024-01-15T01:21:20;99281.34;;;0.08;96.06
23059;BME280;30585;51.502;7.218;2024-01-15T01:23:48;99274.41;;;0.06;96.10
23059;BME280;30585;51.502;7.218;2024-01-15T01:26:16;99277.69;;;0.11;95.77
23059;BME280;30585;51.502;7.218;2024-01-15T01:28:46;99276.22;;;0.05;96.28
23059;BME280;30585;51.502;7.218;2024-01-15T01:31:13;99275.13;;;0.09;95.65
23059;BME280;30585;51.502;7.218;2024-01-15T01:33:43;99182.41;;;-0.44;95.86
23059;BME280;30585;51.502;7.218;2024-01-15T01:36:13;99273.16;;;0.13;95.39
23059;BME280;30585;51.502;7.218;2024-01-15T01:38:41;99278.41;;;0.14;95.54
23059;BME280;30585;51.502;7.218;2024-01-15T01:41:09;99267.00;;;0.12;95.35
23059;BME280;30585;51.502;7.218;2024-01-15T01:43:37;99270.44;;;0.14;95.06
23059;BME280;30585;51.502;7.218;2024-01-15T01:46:06;99281.06;;;0.14;95.20
23059;BME280;30585;51.502;7.218;2024-01-15T01:48:35;99271.38;;;0.13;95.57
23059;BME280;30585;51.502;7.218;2024-01-15T01:51:04;99279.41;;;0.12;95.60
23059;BME280;30585;51.502;7.218;2024-01-15T01:53:33;99281.19;;;0.11;95.63
23059;BME280;30585;51.502;7.218;2024-01-15T01:56:03;99276.84;;;0.10;95.44
23059;BME280;30585;51.502;7.218;2024-01-15T01:58:32;99281.97;;;0.13;95.65
23059;BME280;30585;51.502;7.218;2024-01-15T02:01:00;99274.88;;;0.14;95.34
23059;BME280;30585;51.502;7.218;2024-01-15T02:03:30;99284.47;;;0.16;95.34
23059;BME280;30585;51.502;7.218;2024-01-15T02:05:59;99278.47;;;0.13;95.09
23059;BME280;30585;51.502;7.218;2024-01-15T02:08:27;99286.19;;;0.17;95.03
23059;BME280;30585;51.502;7.218;2024-01-15T02:10:55;99283.56;;;0.17;95.42
23059;BME280;30585;51.502;7.218;2024-01-15T02:13:23;99281.91;;;0.15;94.98
23059;BME280;30585;51.502;7.218;2024-01-15T02:15:50;99269.44;;;0.17;95.05
23059;BME280;30585;51.502;7.218;2024-01-15T02:18:18;99276.69;;;0.13;95.12
23059;BME280;30585;51.502;7.218;2024-01-15T02:20:48;99283.69;;;0.14;95.05
23059;BME280;30585;51.502;7.218;2024-01-15T02:23:17;99276.69;;;0.13;95.09
23059;BME280;30585;51.502;7.218;2024-01-15T02:25:45;99276.69;;;0.13;95.23
23059;BME280;30585;51.502;7.218;2024-01-15T02:28:14;99280.13;;;0.15;95.25
23059;BME280;30585;51.502;7.218;2024-01-15T02:30:43;99281.06;;;0.14;95.21
23059;BME280;30585;51.502;7.218;2024-01-15T02:33:12;99261.22;;;0.04;94.90
23059;BME280;30585;51.502;7.218;2024-01-15T02:35:40;99268.88;;;0.10;94.91
23059;BME280;30585;51.502;7.218;2024-01-15T02:38:08;99276.44;;;0.18;94.48
23059;BME280;30585;51.502;7.218;2024-01-15T02:40:38;99284.47;;;0.16;94.81
23059;BME280;30585;51.502;7.218;2024-01-15T02:43:06;99277.00;;;0.07;94.71
23059;BME280;30585;51.502;7.218;2024-01-15T02:45:33;99272.38;;;0.11;94.89
23059;BME280;30585;51.502;7.218;2024-01-15T02:48:01;99273.41;;;0.08;95.27
23059;BME280;30585;51.502;7.218;2024-01-15T02:50:29;99271.59;;;0.09;95.00
23059;BME280;30585;51.502;7.218;2024-01-15T02:52:57;99270.91;;;0.05;94.71
23059;BME280;30585;51.502;7.218;2024-01-15T02:55:25;99267.94;;;0.11;94.83
23059;BME280;30585;51.502;7.218;2024-01-15T02:57:53;99261.00;;;0.09;95.05
23059;BME280;30585;51.502;7.218;2024-01-15T03:00:21;99271.53;;;0.10;94.69
23059;BME280;30585;51.502;7.218;2024-01-15T03:02:51;99273.25;;;0.11;94.68
23059;BME280;30585;51.502;7.218;2024-01-15T03:05:18;99272.38;;;0.11;94.72
23059;BME280;30585;51.502;7.218;2024-01-15T03:07:46;99264.97;;;0.17;94.48
23059;BME280;30585;51.502;7.218;2024-01-15T03:10:14;99266.84;;;0.15;94.49
23059;BME280;30585;51.502;7.218;2024-01-15T03:12:42;99263.25;;;0.16;94.19
23059;BME280;30585;51.502;7.218;2024-01-15T03:15:11;99271.16;;;0.18;94.53
23059;BME280;30585;51.502;7.218;2024-01-15T03:17:41;99273.00;;;0.16;94.31
23059;BME280;30585;51.502;7.218;2024-01-15T03:20:09;99267.47;;;0.20;94.29
23059;BME280;30585;51.502;7.218;2024-01-15T03:22:37;99274.97;;;0.12;94.48
23059;BME280;30585;51.502;7.218;2024-01-15T03:25:06;99273.16;;;0.13;94.47
23059;BME280;30585;51.502;7.218;2024-01-15T03:27:34;99273.88;;;0.16;94.40
23059;BME280;30585;51.502;7.218;2024-01-15T03:30:02;99267.78;;;0.14;94.43
23059;BME280;30585;51.502;7.218;2024-01-15T03:32:32;99266.78;;;0.17;94.48
23059;BME280;30585;51.502;7.218;2024-01-15T03:35:00;99271.94;;;0.20;94.49
23059;BME280;30585;51.502;7.218;2024-01-15T03:37:28;99276.69;;;0.13;94.52
23059;BME280;30585;51.502;7.218;2024-01-15T03:39:55;99272.16;;;0.15;94.69
23059;BME280;30585;51.502;7.218;2024-01-15T03:42:23;99277.47;;;0.15;95.19
23059;BME280;30585;51.502;7.218;2024-01-15T03:44:51;99285.34;;;0.17;94.65
23059;BME280;30585;51.502;7.218;2024-01-15T03:47:19;99275.59;;;0.17;94.50
23059;BME280;30585;51.502;7.218;2024-01-15T03:49:48;99267.22;;;0.25;94.49
23059;BME280;30585;51.502;7.218;2024-01-15T03:52:16;99298.19;;;0.24;94.42
23059;BME280;30585;51.502;7.218;2024-01-15T03:54:43;99274.56;;;0.20;94.27
23059;BME280;30585;51.502;7.218;2024-01-15T03:57:11;99272.72;;;0.22;94.66
23059;BME280;30585;51.502;7.218;2024-01-15T03:59:40;99267.78;;;0.14;94.46
23059;BME280;30585;51.502;7.218;2024-01-15T04:02:08;99263.09;;;0.19;94.29
23059;BME280;30585;51.502;7.218;2024-01-15T04:04:35;99266.34;;;0.24;94.15
23059;BME280;30585;51.502;7.218;2024-01-15T04:07:05;99262.94;;;0.22;93.92
23059;BME280;30585;51.502;7.218;2024-01-15T04:09:32;99247.34;;;0.16;93.83
23059;BME280;30585;51.502;7.218;2024-01-15T04:12:00;99233.84;;;0.21;94.11
23059;BME280;30585;51.502;7.218;2024-01-15T04:14:28;99246.00;;;0.25;94.11
23059;BME280;30585;51.502;7.218;2024-01-15T04:16:56;99245.13;;;0.24;94.09
23059;BME280;30585;51.502;7.218;2024-01-15T04:19:24;99250.63;;;0.21;93.99
23059;BME280;30585;51.502;7.218;2024-01-15T04:21:52;99241.63;;;0.24;93.51
23059;BME280;30585;51.502;7.218;2024-01-15T04:24:21;99236.50;;;0.21;94.00
23059;BME280;30585;51.502;7.218;2024-01-15T04:26:49;99234.59;;;0.23;93.92
23059;BME280;30585;51.502;7.218;2024-01-15T04:29:17;99234.34;;;0.27;93.25
23059;BME280;30585;51.502;7.218;2024-01-15T04:31:45;99224.75;;;0.25;93.68
23059;BME280;30585;51.502;7.218;2024-01-15T04:34:12;99231.13;;;0.22;93.63
23059;BME280;30585;51.502;7.218;2024-01-15T04:36:40;99217.94;;;0.21;94.01
23059;BME280;30585;51.502;7.218;2024-01-15T04:39:08;99200.31;;;0.20;93.84
23059;BME280;30585;51.502;7.218;2024-01-15T04:41:38;99205.25;;;0.26;93.48
23059;BME280;30585;51.502;7.218;2024-01-15T04:44:06;99206.97;;;0.27;93.67
23059;BME280;30585;51.502;7.218;2024-01-15T04:46:33;99146.59;;;-0.18;93.81
23059;BME280;30585;51.502;7.218;2024-01-15T04:49:01;99210.47;;;0.27;93.79
23059;BME280;30585;51.502;7.218;2024-01-15T04:51:29;99215.78;;;0.27;93.79
23059;BME280;30585;51.502;7.218;2024-01-15T04:53:59;99212.56;;;0.22;93.73
23059;BME280;30585;51.502;7.218;2024-01-15T04:56:26;99209.69;;;0.25;94.07
23059;BME280;30585;51.502;7.218;2024-01-15T04:58:56;99208.69;;;0.28;93.48
23059;BME280;30585;51.502;7.218;2024-01-15T05:01:23;99209.53;;;0.28;93.79
23059;BME280;30585;51.502;7.218;2024-01-15T05:03:51;99208.53;;;0.31;93.60
23059;BME280;30585;51.502;7.218;2024-01-15T05:06:22;99210.16;;;0.33;93.69
23059;BME280;30585;51.502;7.218;2024-01-15T05:08:50;99194.25;;;0.33;93.26
23059;BME280;30585;51.502;7.218;2024-01-15T05:11:18;99198.94;;;0.28;93.31
23059;BME280;30585;51.502;7.218;2024-01-15T05:13:45;99206.34;;;0.39;93.45
23059;BME280;30585;51.502;7.218;2024-01-15T05:16:15;99201.25;;;0.34;93.19
23059;BME280;30585;51.502;7.218;2024-01-15T05:18:43;99205.47;;;0.39;93.06
23059;BME280;30585;51.502;7.218;2024-01-15T05:21:11;99195.81;;;0.38;92.96
23059;BME280;30585;51.502;7.218;2024-01-15T05:23:39;99196.81;;;0.35;93.17
23059;BME280;30585;51.502;7.218;2024-01-15T05:26:06;99188.94;;;0.33;93.68
23059;BME280;30585;51.502;7.218;2024-01-15T05:28:35;99187.06;;;0.36;93.04
23059;BME280;30585;51.502;7.218;2024-01-15T05:31:03;99184.31;;;0.37;93.14
23059;BME280;30585;51.502;7.218;2024-01-15T05:33:33;99185.97;;;0.40;92.60
23059;BME280;30585;51.502;7.218;2024-01-15T05:36:00;99183.31;;;0.40;92.94
23059;BME280;30585;51.502;7.218;2024-01-15T05:38:29;99183.16;;;0.43;92.50
23059;BME280;30585;51.502;7.218;2024-01-15T05:40:56;99189.56;;;0.39;92.89
23059;BME280;30585;51.502;7.218;2024-01-15T05:43:24;99192.13;;;0.40;92.84
23059;BME280;30585;51.502;7.218;2024-01-15T05:45:52;99190.41;;;0.39;92.78
23059;BME280;30585;51.502;7.218;2024-01-15T05:48:19;99184.25;;;0.39;92.61
23059;BME280;30585;51.502;7.218;2024-01-15T05:50:49;99190.34;;;0.41;92.24
23059;BME280;30585;51.502;7.218;2024-01-15T05:53:16;99182.28;;;0.42;92.21
23059;BME280;30585;51.502;7.218;2024-01-15T05:55:44;99191.44;;;0.37;92.53
23059;BME280;30585;51.502;7.218;2024-01-15T05:58:12;99186.91;;;0.39;92.61
23059;BME280;30585;51.502;7.218;2024-01-15T06:00:40;99185.97;;;0.40;92.81
23059;BME280;30585;51.502;7.218;2024-01-15T06:03:08;99185.03;;;0.41;92.50
23059;BME280;30585;51.502;7.218;2024-01-15T06:05:35;99182.38;;;0.41;92.70
23059;BME280;30585;51.502;7.218;2024-01-15T06:08:05;99161.88;;;0.27;92.89
23059;BME280;30585;51.502;7.218;2024-01-15T06:10:32;99184.94;;;0.42;92.36
23059;BME280;30585;51.502;7.218;2024-01-15T06:13:00;99182.00;;;0.47;92.35
23059;BME280;30585;51.502;7.218;2024-01-15T06:15:28;99167.88;;;0.46;92.33
23059;BME280;30585;51.502;7.218;2024-01-15T06:17:56;99178.63;;;0.45;92.50
23059;BME280;30585;51.502;7.218;2024-01-15T06:20:26;99163.56;;;0.45;92.24
23059;BME280;30585;51.502;7.218;2024-01-15T06:22:54;99168.75;;;0.47;92.05
23059;BME280;30585;51.502;7.218;2024-01-15T06:25:25;99157.97;;;0.50;92.06
23059;BME280;30585;51.502;7.218;2024-01-15T06:27:52;99165.22;;;0.46;92.57
23059;BME280;30585;51.502;7.218;2024-01-15T06:30:20;99174.16;;;0.45;92.49
23059;BME280;30585;51.502;7.218;2024-01-15T06:32:48;99164.22;;;0.49;92.80
23059;BME280;30585;51.502;7.218;2024-01-15T06:35:17;99171.22;;;0.50;92.39
23059;BME280;30585;51.502;7.218;2024-01-15T06:37:49;99162.69;;;0.45;92.96
23059;BME280;30585;51.502;7.218;2024-01-15T06:40:16;99156.31;;;0.47;92.62
23059;BME280;30585;51.502;7.218;2024-01-15T06:42:45;99165.16;;;0.48;92.63
23059;BME280;30585;51.502;7.218;2024-01-15T06:45:13;99160.69;;;0.48;92.59
23059;BME280;30585;51.502;7.218;2024-01-15T06:47:41;99153.75;;;0.46;92.72
23059;BME280;30585;51.502;7.218;2024-01-15T06:50:09;99157.19;;;0.48;92.50
23059;BME280;30585;51.502;7.218;2024-01-15T06:52:37;99162.34;;;0.51;92.54
23059;BME280;30585;51.502;7.218;2024-01-15T06:55:05;99151.97;;;0.46;93.03
23059;BME280;30585;51.502;7.218;2024-01-15T06:57:33;99157.97;;;0.50;92.70
23059;BME280;30585;51.502;7.218;2024-01-15T07:00:03;99161.41;;;0.52;92.48
23059;BME280;30585;51.502;7.218;2024-01-15T07:02:34;99170.06;;;0.55;92.79
23059;BME280;30585;51.502;7.218;2024-01-15T07:05:02;99164.97;;;0.51;92.86
23059;BME280;30585;51.502;7.218;2024-01-15T07:07:31;99164.22;;;0.49;92.88
23059;BME280;30585;51.502;7.218;2024-01-15T07:09:59;99164.22;;;0.49;92.81
23059;BME280;30585;51.502;7.218;2024-01-15T07:12:26;99174.75;;;0.50;93.24
23059;BME280;30585;51.502;7.218;2024-01-15T07:14:55;99177.47;;;0.49;92.49
23059;BME280;30585;51.502;7.218;2024-01-15T07:17:24;99173.97;;;0.48;92.49
23059;BME280;30585;51.502;7.218;2024-01-15T07:19:52;99168.75;;;0.47;92.84
23059;BME280;30585;51.502;7.218;2024-01-15T07:22:20;99154.44;;;0.33;92.93
23059;BME280;30585;51.502;7.218;2024-01-15T07:24:47;99171.50;;;0.45;93.32
23059;BME280;30585;51.502;7.218;2024-01-15T07:27:15;99172.16;;;0.49;92.76
23059;BME280;30585;51.502;7.218;2024-01-15T07:29:43;99172.25;;;0.47;92.51
23059;BME280;30585;51.502;7.218;2024-01-15T07:32:12;99175.00;;;0.46;92.58
23059;BME280;30585;51.502;7.218;2024-01-15T07:34:41;99169.50;;;0.49;92.81
23059;BME280;30585;51.502;7.218;2024-01-15T07:37:08;99169.50;;;0.49;92.76
23059;BME280;30585;51.502;7.218;2024-01-15T07:39:36;99162.69;;;0.45;92.53
23059;BME280;30585;51.502;7.218;2024-01-15T07:42:05;99162.69;;;0.45;92.66
23059;BME280;30585;51.502;7.218;2024-01-15T07:44:33;99136.34;;;0.24;92.32
23059;BME280;30585;51.502;7.218;2024-01-15T07:47:01;99147.19;;;0.37;92.70
23059;BME280;30585;51.502;7.218;2024-01-15T07:49:30;99167.03;;;0.46;92.33
23059;BME280;30585;51.502;7.218;2024-01-15T07:51:59;99158.13;;;0.47;92.41
23059;BME280;30585;51.502;7.218;2024-01-15T07:54:27;99166.09;;;0.47;92.61
23059;BME280;30585;51.502;7.218;2024-01-15T07:56:55;99168.94;;;0.44;92.84
23059;BME280;30585;51.502;7.218;2024-01-15T07:59:24;99164.28;;;0.47;92.73
23059;BME280;30585;51.502;7.218;2024-01-15T08:01:52;99164.13;;;0.50;92.74
23059;BME280;30585;51.502;7.218;2024-01-15T08:04:20;99167.47;;;0.54;92.45
23059;BME280;30585;51.502;7.218;2024-01-15T08:06:48;99165.06;;;0.49;92.41
23059;BME280;30585;51.502;7.218;2024-01-15T08:09:17;99158.91;;;0.49;93.00
23059;BME280;30585;51.502;7.218;2024-01-15T08:11:45;99167.63;;;0.51;93.11
23059;BME280;30585;51.502;7.218;2024-01-15T08:14:13;99156.16;;;0.50;92.81
23059;BME280;30585;51.502;7.218;2024-01-15T08:16:41;99128.59;;;0.21;93.14
23059;BME280;30585;51.502;7.218;2024-01-15T08:19:10;99157.72;;;0.39;93.71
23059;BME280;30585;51.502;7.218;2024-01-15T08:21:38;99164.81;;;0.38;92.92
23059;BME280;30585;51.502;7.218;2024-01-15T08:24:06;99154.28;;;0.37;93.67
23059;BME280;30585;51.502;7.218;2024-01-15T08:26:35;99163.16;;;0.20;94.32
23059;BME280;30585;51.502;7.218;2024-01-15T08:29:03;99155.78;;;0.25;94.21
23059;BME280;30585;51.502;7.218;2024-01-15T08:31:31;99161.44;;;0.19;94.62
23059;BME280;30585;51.502;7.218;2024-01-15T08:33:59;99159.56;;;0.21;94.67
23059;BME280;30585;51.502;7.218;2024-01-15T08:36:28;99161.59;;;0.16;94.49
23059;BME280;30585;51.502;7.218;2024-01-15T08:38:57;99150.13;;;0.15;94.89
23059;BME280;30585;51.502;7.218;2024-01-15T08:41:24;99152.00;;;0.13;94.88
23059;BME280;30585;51.502;7.218;2024-01-15T08:43:53;99160.06;;;0.12;95.01
23059;BME280;30585;51.502;7.218;2024-01-15T08:46:21;99153.88;;;0.11;95.12
23059;BME280;30585;51.502;7.218;2024-01-15T08:48:49;99165.19;;;0.15;95.23
23059;BME280;30585;51.502;7.218;2024-01-15T08:51:17;99142.91;;;0.02;95.24
23059;BME280;30585;51.502;7.218;2024-01-15T08:53:46;99161.44;;;0.19;95.08
23059;BME280;30585;51.502;7.218;2024-01-15T08:56:13;99165.19;;;0.15;95.10
23059;BME280;30585;51.502;7.218;2024-01-15T08:58:41;99174.16;;;0.12;94.84
23059;BME280;30585;51.502;7.218;2024-01-15T09:01:10;99176.66;;;0.15;94.89
23059;BME280;30585;51.502;7.218;2024-01-15T09:03:39;99173.22;;;0.13;94.81
23059;BME280;30585;51.502;7.218;2024-01-15T09:06:08;99181.88;;;0.17;94.91
23059;BME280;30585;51.502;7.218;2024-01-15T09:08:37;99183.69;;;0.16;95.41
23059;BME280;30585;51.502;7.218;2024-01-15T09:11:05;99183.06;;;0.11;95.40
23059;BME280;30585;51.502;7.218;2024-01-15T09:13:32;99176.13;;;0.09;95.31
23059;BME280;30585;51.502;7.218;2024-01-15T09:16:01;99185.72;;;0.11;95.20
23059;BME280;30585;51.502;7.218;2024-01-15T09:18:31;99188.69;;;0.05;95.43
23059;BME280;30585;51.502;7.218;2024-01-15T09:20:59;99182.44;;;0.06;95.55
23059;BME280;30585;51.502;7.218;2024-01-15T09:23:27;99182.44;;;0.06;95.74
23059;BME280;30585;51.502;7.218;2024-01-15T09:25:55;99184.84;;;0.11;95.74
23059;BME280;30585;51.502;7.218;2024-01-15T09:28:23;99188.69;;;0.05;95.90
23059;BME280;30585;51.502;7.218;2024-01-15T09:30:50;99159.56;;;-0.12;95.92
23059;BME280;30585;51.502;7.218;2024-01-15T09:33:18;99192.97;;;0.08;95.49
23059;BME280;30585;51.502;7.218;2024-01-15T09:35:47;99187.81;;;0.05;95.48
23059;BME280;30585;51.502;7.218;2024-01-15T09:38:15;99189.78;;;0.01;95.46
23059;BME280;30585;51.502;7.218;2024-01-15T09:40:45;99181.16;;;-0.03;95.61
23059;BME280;30585;51.502;7.218;2024-01-15T09:43:14;99187.31;;;-0.02;95.54
23059;BME280;30585;51.502;7.218;2024-01-15T09:45:42;99201.34;;;0.00;95.59
23059;BME280;30585;51.502;7.218;2024-01-15T09:48:11;99199.44;;;0.02;95.45
23059;BME280;30585;51.502;7.218;2024-01-15T09:50:39;99205.63;;;0.03;95.20
23059;BME280;30585;51.502;7.218;2024-01-15T09:53:09;99184.66;;;-0.19;95.21
23059;BME280;30585;51.502;7.218;2024-01-15T09:55:37;99198.44;;;0.05;95.19
23059;BME280;30585;51.502;7.218;2024-01-15T09:58:05;99181.59;;;0.06;95.23
23059;BME280;30585;51.502;7.218;2024-01-15T10:00:33;99189.97;;;-0.02;95.50
23059;BME280;30585;51.502;7.218;2024-01-15T10:03:04;99190.63;;;0.02;95.33
23059;BME280;30585;51.502;7.218;2024-01-15T10:05:33;99178.81;;;-0.09;95.56
23059;BME280;30585;51.502;7.218;2024-01-15T10:08:00;99187.56;;;-0.07;95.67
23059;BME280;30585;51.502;7.218;2024-01-15T10:10:30;99180.59;;;-0.09;95.98
23059;BME280;30585;51.502;7.218;2024-01-15T10:12:59;99185.13;;;-0.11;96.15
23059;BME280;30585;51.502;7.218;2024-01-15T10:15:27;99191.06;;;-0.06;96.12
23059;BME280;30585;51.502;7.218;2024-01-15T10:17:56;99175.63;;;-0.15;95.99
23059;BME280;30585;51.502;7.218;2024-01-15T10:20:24;99181.94;;;-0.01;95.98
23059;BME280;30585;51.502;7.218;2024-01-15T10:22:51;99189.63;;;0.04;95.84
23059;BME280;30585;51.502;7.218;2024-01-15T10:25:19;99189.31;;;0.10;95.72
23059;BME280;30585;51.502;7.218;2024-01-15T10:28:00;99177.91;;;0.08;95.50
23059;BME280;30585;51.502;7.218;2024-01-15T10:30:29;99164.31;;;-0.02;96.16
23059;BME280;30585;51.502;7.218;2024-01-15T10:32:57;99175.25;;;0.08;95.59
23059;BME280;30585;51.502;7.218;2024-01-15T10:35:29;99175.25;;;0.08;95.87
23059;BME280;30585;51.502;7.218;2024-01-15T10:37:58;99179.25;;;0.17;95.49
23059;BME280;30585;51.502;7.218;2024-01-15T10:40:26;99175.50;;;0.21;95.24
23059;BME280;30585;51.502;7.218;2024-01-15T10:42:54;99180.88;;;0.19;95.06
23059;BME280;30585;51.502;7.218;2024-01-15T10:45:23;99186.34;;;0.16;94.98
23059;BME280;30585;51.502;7.218;2024-01-15T10:47:52;99189.84;;;0.17;95.22
23059;BME280;30585;51.502;7.218;2024-01-15T10:50:21;99192.00;;;0.26;95.15
23059;BME280;30585;51.502;7.218;2024-01-15T10:52:49;99187.91;;;0.20;94.98
23059;BME280;30585;51.502;7.218;2024-01-15T10:55:18;99186.44;;;0.30;94.92
23059;BME280;30585;51.502;7.218;2024-01-15T10:57:48;99184.88;;;0.26;94.95
23059;BME280;30585;51.502;7.218;2024-01-15T11:00:17;99181.22;;;0.29;94.58
23059;BME280;30585;51.502;7.218;2024-01-15T11:02:47;99189.09;;;0.30;94.88
23059;BME280;30585;51.502;7.218;2024-01-15T11:05:15;99182.00;;;0.31;94.41
23059;BME280;30585;51.502;7.218;2024-01-15T11:07:48;99182.25;;;0.26;94.82
23059;BME280;30585;51.502;7.218;2024-01-15T11:10:37;99184.31;;;0.21;95.26
23059;BME280;30585;51.502;7.218;2024-01-15T11:13:08;99185.81;;;0.25;95.02
23059;BME280;30585;51.502;7.218;2024-01-15T11:15:54;99190.56;;;0.36;94.41
23059;BME280;30585;51.502;7.218;2024-01-15T11:18:23;99192.22;;;0.39;94.55
23059;BME280;30585;51.502;7.218;2024-01-15T11:21:20;99195.63;;;0.41;94.32
23059;BME280;30585;51.502;7.218;2024-01-15T11:23:50;99193.41;;;0.49;94.35
23059;BME280;30585;51.502;7.218;2024-01-15T11:26:43;99188.88;;;0.51;94.37
23059;BME280;30585;51.502;7.218;2024-01-15T11:29:29;99181.78;;;0.51;94.11
23059;BME280;30585;51.502;7.218;2024-01-15T11:32:02;99178.69;;;0.59;94.11
23059;BME280;30585;51.502;7.218;2024-01-15T11:34:52;99182.38;;;0.56;93.77
23059;BME280;30585;51.502;7.218;2024-01-15T11:37:21;99177.94;;;0.57;93.71
23059;BME280;30585;51.502;7.218;2024-01-15T11:39:52;99182.63;;;0.52;93.58
23059;BME280;30585;51.502;7.218;2024-01-15T11:42:21;99184.41;;;0.51;93.37
23059;BME280;30585;51.502;7.218;2024-01-15T11:44:50;99183.25;;;0.57;93.61
23059;BME280;30585;51.502;7.218;2024-01-15T11:47:36;99191.19;;;0.57;93.92
23059;BME280;30585;51.502;7.218;2024-01-15T11:50:14;99183.06;;;0.60;93.32
23059;BME280;30585;51.502;7.218;2024-01-15T11:52:44;99185.03;;;0.56;94.14
23059;BME280;30585;51.502;7.218;2024-01-15T11:55:19;99175.88;;;0.62;93.53
23059;BME280;30585;51.502;7.218;2024-01-15T11:57:50;99177.69;;;0.61;93.25
23059;BME280;30585;51.502;7.218;2024-01-15T12:00:18;99169.34;;;0.52;94.22
23059;BME280;30585;51.502;7.218;2024-01-15T12:02:48;99166.28;;;0.59;93.78
23059;BME280;30585;51.502;7.218;2024-01-15T12:05:19;99161.84;;;0.60;93.75
23059;BME280;30585;51.502;7.218;2024-01-15T12:07:48;99165.09;;;0.65;93.79
23059;BME280;30585;51.502;7.218;2024-01-15T12:10:18;99180.84;;;0.68;93.17
23059;BME280;30585;51.502;7.218;2024-01-15T12:12:55;99180.16;;;0.64;92.75
23059;BME280;30585;51.502;7.218;2024-01-15T12:15:26;99178.38;;;0.65;93.28
23059;BME280;30585;51.502;7.218;2024-01-15T12:17:55;99178.28;;;0.66;93.24
23059;BME280;30585;51.502;7.218;2024-01-15T12:20:26;99145.72;;;0.31;93.39
23059;BME280;30585;51.502;7.218;2024-01-15T12:22:55;99182.91;;;0.63;93.18
23059;BME280;30585;51.502;7.218;2024-01-15T12:25:30;99183.31;;;0.71;93.46
23059;BME280;30585;51.502;7.218;2024-01-15T12:27:58;99182.22;;;0.75;93.50
23059;BME280;30585;51.502;7.218;2024-01-15T12:30:26;99178.44;;;0.79;93.06
23059;BME280;30585;51.502;7.218;2024-01-15T12:32:54;99129.13;;;0.44;93.25
23059;BME280;30585;51.502;7.218;2024-01-15T12:35:24;99183.50;;;0.68;92.49
23059;BME280;30585;51.502;7.218;2024-01-15T12:37:54;99187.44;;;0.77;93.09
23059;BME280;30585;51.502;7.218;2024-01-15T12:40:23;99183.25;;;0.73;93.33
23059;BME280;30585;51.502;7.218;2024-01-15T12:42:52;99173.47;;;0.73;92.82
23059;BME280;30585;51.502;7.218;2024-01-15T12:45:19;99170.03;;;0.71;92.54
23059;BME280;30585;51.502;7.218;2024-01-15T12:47:47;99169.19;;;0.71;92.67
23059;BME280;30585;51.502;7.218;2024-01-15T12:50:17;99164.16;;;0.66;92.82
23059;BME280;30585;51.502;7.218;2024-01-15T12:52:48;99182.75;;;0.66;92.69
23059;BME280;30585;51.502;7.218;2024-01-15T12:55:16;99182.75;;;0.66;93.30
23059;BME280;30585;51.502;7.218;2024-01-15T12:57:43;99199.94;;;0.75;92.99
23059;BME280;30585;51.502;7.218;2024-01-15T13:00:13;99183.75;;;0.79;93.16
23059;BME280;30585;51.502;7.218;2024-01-15T13:02:41;99191.66;;;0.81;93.34
23059;BME280;30585;51.502;7.218;2024-01-15T13:05:11;99200.13;;;0.87;93.59
23059;BME280;30585;51.502;7.218;2024-01-15T13:07:41;99193.03;;;0.88;93.30
23059;BME280;30585;51.502;7.218;2024-01-15T13:10:12;99195.94;;;0.83;92.63
23059;BME280;30585;51.502;7.218;2024-01-15T13:12:40;99205.00;;;0.79;93.10
23059;BME280;30585;51.502;7.218;2024-01-15T13:15:09;99197.81;;;0.81;93.33
23059;BME280;30585;51.502;7.218;2024-01-15T13:17:40;99199.38;;;0.85;93.43
23059;BME280;30585;51.502;7.218;2024-01-15T13:20:10;99200.91;;;0.89;93.22